Time;durP1;ratioP1;P1;durP2;ratioP2;P2;SDS_P1;SDS_P2;PMS_P1;PMS_P2;Temp;Humidity;BMP_temperature;BMP_pressure;BME280_temperature;BME280_humidity;BME280_pressure;Samples;Min_cycle;Max_cycle;Signal;HPM_P1;HPM_P2
2023/05/12 00:02:07;;;;;;;0.00;0.00;;;;;;;9.58;89.44;100655.13;6200751;23;20005;-76
2023/05/12 00:04:34;;;;;;;0.00;0.00;;;;;;;9.47;89.82;100637.78;6156367;23;20008;-76
2023/05/12 00:07:00;;;;;;;0.00;0.00;;;;;;;9.46;89.63;100647.03;6152398;23;20054;-76
2023/05/12 00:09:25;;;;;;;0.00;0.00;;;;;;;9.43;89.58;100650.25;6205140;23;20008;-77
2023/05/12 00:11:51;;;;;;;0.00;0.00;;;;;;;9.30;90.32;100632.38;6152008;23;20009;-77
2023/05/12 00:14:19;;;;;;;0.00;0.00;;;;;;;9.41;90.47;100652.44;6179949;23;20038;-76
2023/05/12 00:16:50;;;;;;;0.00;0.00;;;;;;;9.33;90.66;100647.41;6178525;23;20004;-77
2023/05/12 00:19:17;;;;;;;0.00;0.00;;;;;;;9.16;90.23;100617.44;6180727;23;20005;-76
2023/05/12 00:21:42;;;;;;;0.00;0.00;;;;;;;9.32;90.76;100652.03;6178705;22;20076;-75
2023/05/12 00:24:10;;;;;;;0.00;0.00;;;;;;;9.33;91.57;100663.78;6177379;23;20377;-76
2023/05/12 00:26:35;;;;;;;0.00;0.00;;;;;;;9.28;91.47;100655.53;6180345;22;20023;-75
2023/05/12 00:29:01;;;;;;;0.00;0.00;;;;;;;9.28;91.62;100650.06;6153159;23;20013;-75
2023/05/12 00:31:28;;;;;;;0.00;0.00;;;;;;;9.25;91.02;100668.59;6153835;23;20017;-76
2023/05/12 00:33:53;;;;;;;0.00;0.00;;;;;;;9.26;91.91;100664.78;6177758;22;20039;-75
2023/05/12 00:36:19;;;;;;;0.00;0.00;;;;;;;9.21;92.17;100661.16;6203922;22;20012;-74
2023/05/12 00:38:44;;;;;;;0.00;0.00;;;;;;;9.19;91.99;100669.59;6156418;23;20324;-75
2023/05/12 00:41:09;;;;;;;0.00;0.00;;;;;;;9.17;92.32;100671.75;6178249;22;20024;-75
2023/05/12 00:43:42;;;;;;;0.00;0.00;;;;;;;9.09;92.65;100664.00;6153763;23;20009;-76
2023/05/12 00:46:08;;;;;;;0.00;0.00;;;;;;;9.07;92.95;100657.97;6176764;23;20005;-75
2023/05/12 00:48:34;;;;;;;0.00;0.00;;;;;;;9.05;92.97;100663.69;6179430;23;20573;-75
2023/05/12 00:51:01;;;;;;;0.00;0.00;;;;;;;9.12;93.29;100679.84;6178633;23;20623;-76
2023/05/12 00:53:28;;;;;;;0.00;0.00;;;;;;;9.06;93.74;100675.41;6177519;22;20008;-75
2023/05/12 00:55:54;;;;;;;0.00;0.00;;;;;;;9.16;93.75;100686.47;6180446;23;20040;-76
2023/05/12 00:58:20;;;;;;;0.00;0.00;;;;;;;9.14;93.85;100694.09;6201843;22;20009;-75
2023/05/12 01:00:45;;;;;;;0.00;0.00;;;;;;;9.01;94.06;100683.50;6203944;23;20087;-76
2023/05/12 01:03:10;;;;;;;0.00;0.00;;;;;;;8.93;94.38;100686.66;6204845;23;20005;-75
2023/05/12 01:05:48;;;;;;;0.00;0.00;;;;;;;8.94;94.37;100691.06;6180394;22;20031;-76
2023/05/12 01:08:18;;;;;;;0.00;0.00;;;;;;;8.90;94.37;100699.72;6202600;22;19996;-76
2023/05/12 01:10:45;;;;;;;0.00;0.00;;;;;;;8.90;95.05;100696.16;6205536;23;20417;-75
2023/05/12 01:13:11;;;;;;;0.00;0.00;;;;;;;8.90;94.81;100704.34;6206582;23;20008;-75
2023/05/12 01:15:41;;;;;;;0.00;0.00;;;;;;;8.88;95.33;100706.50;6203013;23;20104;-75
2023/05/12 01:18:10;;;;;;;0.00;0.00;;;;;;;8.81;95.52;100695.75;6204632;22;20009;-76
2023/05/12 01:20:36;;;;;;;0.00;0.00;;;;;;;8.86;95.41;100706.75;6177334;23;20008;-76
2023/05/12 01:23:03;;;;;;;0.00;0.00;;;;;;;8.83;95.21;100712.69;6179759;22;20620;-76
2023/05/12 01:25:31;;;;;;;0.00;0.00;;;;;;;8.65;95.73;100685.66;6202572;22;20008;-76
2023/05/12 01:27:57;;;;;;;0.00;0.00;;;;;;;8.82;95.36;100711.03;6176872;22;20010;-75
2023/05/12 01:30:23;;;;;;;0.00;0.00;;;;;;;8.75;95.55;100710.38;6177612;22;20011;-76
2023/05/12 01:32:49;;;;;;;0.00;0.00;;;;;;;8.74;96.03;100712.25;6203605;23;20004;-76
2023/05/12 01:35:15;;;;;;;0.00;0.00;;;;;;;8.73;96.38;100709.78;6204177;22;20453;-77
2023/05/12 01:37:40;;;;;;;0.00;0.00;;;;;;;8.68;95.95;100701.53;6175788;22;20028;-75
2023/05/12 01:40:06;;;;;;;0.00;0.00;;;;;;;8.73;96.14;100715.22;6204005;22;20019;-76
2023/05/12 01:42:32;;;;;;;0.00;0.00;;;;;;;8.73;96.46;100712.50;6176461;23;20393;-76
2023/05/12 01:44:57;;;;;;;0.00;0.00;;;;;;;8.73;96.69;100715.22;6204503;22;20069;-76
2023/05/12 01:47:23;;;;;;;0.00;0.00;;;;;;;8.70;96.14;100713.84;6201958;22;20011;-78
2023/05/12 01:49:48;;;;;;;0.00;0.00;;;;;;;8.74;96.49;100722.34;6177997;22;20058;-77
2023/05/12 01:52:14;;;;;;;0.00;0.00;;;;;;;8.71;96.33;100722.84;6152235;23;20036;-76
2023/05/12 01:54:39;;;;;;;0.00;0.00;;;;;;;8.70;96.36;100729.38;6177346;23;20013;-77
2023/05/12 01:57:05;;;;;;;0.00;0.00;;;;;;;8.64;96.83;100727.63;6150029;23;20085;-77
2023/05/12 01:59:30;;;;;;;0.00;0.00;;;;;;;8.58;96.93;100721.25;6204137;23;20008;-75
2023/05/12 02:01:56;;;;;;;0.00;0.00;;;;;;;8.60;97.42;100732.75;6177190;23;20012;-77
2023/05/12 02:04:21;;;;;;;0.00;0.00;;;;;;;8.63;97.05;100742.31;6202213;23;20973;-76
2023/05/12 02:06:47;;;;;;;0.00;0.00;;;;;;;8.58;97.26;100729.44;6180588;22;20012;-76
2023/05/12 02:09:14;;;;;;;0.00;0.00;;;;;;;8.44;97.28;100712.56;6174933;23;20012;-77
2023/05/12 02:11:45;;;;;;;0.00;0.00;;;;;;;8.35;97.47;100714.00;6180917;23;20775;-76
2023/05/12 02:14:10;;;;;;;0.00;0.00;;;;;;;8.40;97.82;100719.56;6199457;22;20019;-74
2023/05/12 02:16:36;;;;;;;0.00;0.00;;;;;;;8.51;98.23;100735.06;6178368;22;20008;-76
2023/05/12 02:19:01;;;;;;;0.00;0.00;;;;;;;8.50;98.44;100727.13;6151485;23;20053;-76
2023/05/12 02:21:26;;;;;;;0.00;0.00;;;;;;;8.39;98.20;100706.97;6179787;22;20009;-79
2023/05/12 02:23:55;;;;;;;0.00;0.00;;;;;;;8.47;98.01;100728.44;6180704;23;20135;-79
2023/05/12 02:26:20;;;;;;;0.00;0.00;;;;;;;8.52;98.45;100750.31;6202715;22;20008;-78
2023/05/12 02:28:48;;;;;;;0.00;0.00;;;;;;;8.32;98.07;100728.09;6176329;23;20060;-79
2023/05/12 02:31:14;;;;;;;0.00;0.00;;;;;;;8.41;98.86;100745.75;6200379;23;20005;-80
2023/05/12 02:33:39;;;;;;;0.00;0.00;;;;;;;8.27;98.66;100733.47;6202550;23;20097;-79
2023/05/12 02:36:05;;;;;;;0.00;0.00;;;;;;;8.26;99.21;100742.72;6152401;23;20091;-80
2023/05/12 02:38:30;;;;;;;0.00;0.00;;;;;;;8.22;99.69;100747.81;6179001;23;20169;-80
2023/05/12 02:40:55;;;;;;;0.10;0.10;;;;;;;8.24;99.79;100744.84;6179720;23;20710;-80
2023/05/12 02:43:21;;;;;;;0.00;0.00;;;;;;;8.20;99.58;100742.59;6176006;22;20388;-80
2023/05/12 02:45:46;;;;;;;0.00;0.00;;;;;;;8.18;99.52;100747.47;6154414;23;20026;-79
2023/05/12 02:48:12;;;;;;;0.00;0.00;;;;;;;8.15;99.69;100744.41;6175214;23;20005;-79
2023/05/12 02:50:37;;;;;;;0.00;0.00;;;;;;;8.16;99.80;100752.34;6178443;23;20016;-79
2023/05/12 02:53:02;;;;;;;0.00;0.00;;;;;;;8.10;99.96;100753.28;6199760;23;20020;-79
2023/05/12 02:55:31;;;;;;;0.00;0.00;;;;;;;7.93;99.98;100728.72;6153681;23;20062;-79
2023/05/12 02:57:57;;;;;;;0.00;0.00;;;;;;;7.98;100.00;100736.16;6202288;22;20343;-79
2023/05/12 03:00:22;;;;;;;0.00;0.00;;;;;;;8.01;100.00;100746.56;6174212;23;20012;-79
2023/05/12 03:02:48;;;;;;;0.00;0.00;;;;;;;8.02;100.00;100753.69;6179259;23;20017;-79
2023/05/12 03:05:13;;;;;;;0.00;0.00;;;;;;;7.97;100.00;100745.41;6174839;23;20016;-78
2023/05/12 03:07:38;;;;;;;0.00;0.00;;;;;;;8.03;100.00;100760.75;6152987;23;20402;-80
2023/05/12 03:10:05;;;;;;;0.00;0.00;;;;;;;7.96;100.00;100757.38;6203628;23;20063;-78
2023/05/12 03:12:30;;;;;;;0.00;0.00;;;;;;;8.00;100.00;100763.97;6203397;22;20030;-79
2023/05/12 03:14:56;;;;;;;0.00;0.00;;;;;;;7.85;100.00;100742.69;6203218;23;20005;-79
2023/05/12 03:17:22;;;;;;;0.00;0.00;;;;;;;7.94;100.00;100762.22;6149872;23;20009;-80
2023/05/12 03:19:49;;;;;;;0.00;0.00;;;;;;;7.97;100.00;100769.91;6179367;22;20008;-80
2023/05/12 03:22:15;;;;;;;0.00;0.00;;;;;;;8.04;100.00;100773.31;6176410;22;20682;-78
2023/05/12 03:24:40;;;;;;;0.00;0.00;;;;;;;8.04;100.00;100773.31;6205218;23;20100;-78
2023/05/12 03:27:06;;;;;;;0.00;0.00;;;;;;;8.02;100.00;100770.03;6150439;23;20017;-78
2023/05/12 03:29:32;;;;;;;0.00;0.00;;;;;;;8.01;100.00;100773.81;6178627;23;20154;-79
2023/05/12 03:31:57;;;;;;;0.00;0.00;;;;;;;8.06;100.00;100779.38;6176998;23;20012;-78
2023/05/12 03:34:22;;;;;;;0.00;0.00;;;;;;;8.11;100.00;100784.09;6200893;23;20092;-78
2023/05/12 03:36:48;;;;;;;0.00;0.00;;;;;;;8.06;100.00;100770.34;6177604;23;20009;-77
2023/05/12 03:39:13;;;;;;;0.00;0.00;;;;;;;8.15;100.00;100788.00;6197549;23;20019;-79
2023/05/12 03:41:39;;;;;;;0.00;0.00;;;;;;;8.11;100.00;100793.09;6154685;23;20017;-79
2023/05/12 03:44:07;;;;;;;0.00;0.00;;;;;;;8.15;100.00;100802.44;6174803;23;20004;-79
2023/05/12 03:46:32;;;;;;;0.00;0.00;;;;;;;8.05;100.00;100791.34;6200832;22;20016;-79
2023/05/12 03:48:58;;;;;;;0.00;0.00;;;;;;;8.09;100.00;100797.97;6202818;23;20001;-77
2023/05/12 03:51:24;;;;;;;0.00;0.00;;;;;;;8.04;100.00;100795.97;6176013;22;20050;-79
2023/05/12 03:53:50;;;;;;;0.00;0.00;;;;;;;8.07;100.00;100804.72;6155231;23;20009;-79
2023/05/12 03:56:16;;;;;;;0.00;0.00;;;;;;;7.94;100.00;100798.44;6176244;22;20523;-78
2023/05/12 03:58:47;;;;;;;0.00;0.00;;;;;;;7.99;100.00;100803.19;6204675;22;20480;-80
2023/05/12 04:01:20;;;;;;;0.00;0.00;;;;;;;8.13;100.00;100810.03;6202266;23;20027;-80
2023/05/12 04:03:47;;;;;;;0.00;0.00;;;;;;;8.26;100.00;100803.47;6181134;23;20001;-79
2023/05/12 04:06:13;;;;;;;0.00;0.00;;;;;;;8.62;100.00;100822.47;6179600;23;20423;-81
2023/05/12 04:08:41;;;;;;;0.00;0.00;;;;;;;8.64;100.00;100785.69;6175128;22;20013;-78
2023/05/12 04:11:06;;;;;;;0.00;0.00;;;;;;;8.97;100.00;100829.66;6207964;23;20455;-78
2023/05/12 04:13:32;;;;;;;0.00;0.00;;;;;;;9.12;100.00;100827.19;6150594;23;20092;-80
2023/05/12 04:15:58;;;;;;;0.00;0.00;;;;;;;9.21;99.42;100830.34;6181006;23;20032;-80
2023/05/12 04:18:25;;;;;;;0.00;0.00;;;;;;;9.32;99.65;100831.34;6207231;23;20056;-80
2023/05/12 04:20:50;;;;;;;0.00;0.00;;;;;;;9.47;99.12;100833.50;6152344;23;20643;-79
2023/05/12 04:23:16;;;;;;;0.00;0.00;;;;;;;9.57;98.67;100834.47;6180859;23;20005;-80
2023/05/12 04:25:45;;;;;;;0.00;0.00;;;;;;;9.61;98.85;100841.09;6175854;23;20004;-80
2023/05/12 04:28:10;;;;;;;0.00;0.00;;;;;;;9.63;99.13;100837.31;6203773;22;20390;-79
2023/05/12 04:30:40;;;;;;;0.00;0.00;;;;;;;9.57;98.94;100818.09;6202778;23;20028;-81
2023/05/12 04:33:08;;;;;;;0.00;0.00;;;;;;;9.75;98.80;100846.22;6180126;23;20016;-79
2023/05/12 04:35:41;;;;;;;0.00;0.00;;;;;;;9.66;98.41;100821.22;6202936;22;20036;-80
2023/05/12 04:38:06;;;;;;;0.00;0.00;;;;;;;9.81;98.83;100839.75;6179074;23;20023;-79
2023/05/12 04:40:32;;;;;;;0.00;0.00;;;;;;;9.84;98.92;100828.34;6157856;23;20028;-80
2023/05/12 04:42:57;;;;;;;0.00;0.00;;;;;;;9.99;98.56;100846.00;6199677;23;20024;-79
2023/05/12 04:45:23;;;;;;;0.00;0.00;;;;;;;10.04;98.91;100854.28;6205468;23;20000;-78
2023/05/12 04:47:48;;;;;;;0.00;0.00;;;;;;;9.99;98.18;100851.47;6201348;23;20004;-79
2023/05/12 04:50:16;;;;;;;0.00;0.00;;;;;;;10.00;98.88;100864.88;6205803;23;20488;-79
2023/05/12 04:52:45;;;;;;;0.00;0.00;;;;;;;10.03;98.99;100866.28;6146593;23;20470;-79
2023/05/12 04:55:10;;;;;;;0.00;0.00;;;;;;;10.08;98.71;100861.72;6176258;23;20009;-79
2023/05/12 04:57:36;;;;;;;0.00;0.00;;;;;;;10.08;98.39;100860.91;6150955;23;20068;-79
2023/05/12 05:00:04;;;;;;;0.00;0.00;;;;;;;10.16;98.71;100874.13;6146236;23;20020;-80
2023/05/12 05:02:30;;;;;;;0.00;0.00;;;;;;;10.13;98.57;100864.53;6151839;23;20005;-79
2023/05/12 05:04:55;;;;;;;0.00;0.00;;;;;;;10.15;98.94;100861.53;6121830;23;20020;-80
2023/05/12 05:07:20;;;;;;;0.00;0.00;;;;;;;10.27;98.71;100884.13;6149301;23;20419;-80
2023/05/12 05:09:46;;;;;;;0.00;0.00;;;;;;;10.22;98.26;100861.34;6151735;22;20339;-79
2023/05/12 05:12:14;;;;;;;0.00;0.00;;;;;;;10.36;98.69;100875.50;6170986;22;20341;-79
2023/05/12 05:14:39;;;;;;;0.00;0.00;;;;;;;10.26;98.67;100857.84;6176374;23;20506;-79
2023/05/12 05:17:06;;;;;;;0.00;0.00;;;;;;;10.39;98.20;100864.06;6123422;23;20048;-79
2023/05/12 05:19:32;;;;;;;0.00;0.00;;;;;;;10.63;98.75;100892.81;6174077;23;20005;-80
2023/05/12 05:21:57;;;;;;;0.00;0.00;;;;;;;10.58;97.87;100867.31;6148904;23;20024;-80
2023/05/12 05:24:30;;;;;;;0.00;0.00;;;;;;;10.79;97.76;100892.97;6173246;22;20012;-80
2023/05/12 05:27:00;;;;;;;0.00;0.00;;;;;;;10.83;97.78;100896.84;6129187;22;20001;-81
2023/05/12 05:29:26;;;;;;;0.00;0.00;;;;;;;10.72;97.55;100870.47;6147729;23;20013;-79
2023/05/12 05:31:51;;;;;;;0.00;0.00;;;;;;;10.81;98.07;100877.16;6127166;23;20283;-81
2023/05/12 05:34:20;;;;;;;0.00;0.00;;;;;;;11.06;97.96;100914.09;6146290;23;20028;-80
2023/05/12 05:36:48;;;;;;;0.00;0.00;;;;;;;11.10;97.08;100907.84;6177944;23;20013;-81
2023/05/12 05:39:13;;;;;;;0.00;0.00;;;;;;;11.00;97.33;100894.88;6173722;23;20100;-81
2023/05/12 05:41:46;;;;;;;0.00;0.00;;;;;;;11.11;97.01;100901.28;6175684;23;20056;-80
2023/05/12 05:44:12;;;;;;;0.00;0.00;;;;;;;11.17;97.06;100899.44;6172050;22;20096;-80
2023/05/12 05:46:40;;;;;;;0.00;0.00;;;;;;;11.30;96.41;100920.06;6171635;23;20005;-80
2023/05/12 05:49:06;;;;;;;0.00;0.00;;;;;;;11.27;96.09;100915.13;6176228;23;20009;-79
2023/05/12 05:51:34;;;;;;;0.00;0.00;;;;;;;11.27;96.38;100915.97;6197505;23;20009;-80
2023/05/12 05:53:59;;;;;;;0.00;0.00;;;;;;;11.25;95.52;100907.16;6173936;23;20122;-82
2023/05/12 05:56:25;;;;;;;0.00;0.00;;;;;;;11.48;95.88;100921.63;6168396;23;20430;-81
2023/05/12 05:58:51;;;;;;;0.00;0.00;;;;;;;11.70;95.04;100927.03;6147410;22;20040;-80
2023/05/12 06:01:16;;;;;;;0.00;0.00;;;;;;;11.79;93.96;100917.22;6195627;23;20472;-79
2023/05/12 06:03:42;;;;;;;0.00;0.00;;;;;;;12.12;92.85;100942.72;6147188;23;20019;-79
2023/05/12 06:06:07;;;;;;;0.00;0.00;;;;;;;12.23;91.83;100940.84;6122310;23;20033;-78
2023/05/12 06:08:33;;;;;;;0.00;0.00;;;;;;;12.40;91.12;100959.88;6119768;23;20044;-81
2023/05/12 06:10:58;;;;;;;0.00;0.00;;;;;;;12.45;90.77;100968.13;6149479;22;20016;-79
2023/05/12 06:13:25;;;;;;;0.00;0.00;;;;;;;12.44;89.86;100955.53;6172560;23;20431;-79
2023/05/12 06:15:50;;;;;;;0.00;0.00;;;;;;;12.50;89.79;100959.94;6175157;23;20009;-78
2023/05/12 06:18:15;;;;;;;0.00;0.00;;;;;;;12.51;88.81;100969.00;6125139;23;20092;-81
2023/05/12 06:20:41;;;;;;;0.00;0.00;;;;;;;12.47;88.65;100970.59;6170714;22;20054;-80
2023/05/12 06:23:06;;;;;;;0.00;0.00;;;;;;;12.42;88.94;100970.59;6125039;23;20009;-79
2023/05/12 06:25:32;;;;;;;0.00;0.00;;;;;;;12.53;88.59;100975.88;6144759;23;20019;-79
2023/05/12 06:27:57;;;;;;;0.00;0.00;;;;;;;12.78;88.17;100973.53;6123406;23;20333;-80
2023/05/12 06:30:23;;;;;;;0.00;0.00;;;;;;;12.93;87.14;100979.91;6148283;23;20081;-80
2023/05/12 06:32:51;;;;;;;0.00;0.00;;;;;;;12.95;86.31;100982.38;6168310;23;20005;-79
2023/05/12 06:35:17;;;;;;;0.00;0.00;;;;;;;12.85;86.11;100979.59;6174490;23;20028;-78
2023/05/12 06:37:48;;;;;;;0.00;0.00;;;;;;;13.02;85.67;100982.94;6148458;23;20030;-77
2023/05/12 06:40:14;;;;;;;0.00;0.00;;;;;;;13.21;85.29;100990.72;6171946;23;20009;-77
2023/05/12 06:42:39;;;;;;;0.00;0.00;;;;;;;13.57;83.69;100985.34;6170616;23;20940;-79
2023/05/12 06:45:05;;;;;;;0.00;0.00;;;;;;;13.54;82.15;100983.97;6149542;23;20082;-76
2023/05/12 06:47:31;;;;;;;0.00;0.00;;;;;;;13.47;80.77;100993.56;6145144;23;20001;-77
2023/05/12 06:50:03;;;;;;;0.00;0.00;;;;;;;13.24;80.18;100998.41;6149873;23;20038;-77
2023/05/12 06:52:29;;;;;;;0.00;0.00;;;;;;;13.21;79.14;101007.19;6150021;23;20008;-77
2023/05/12 06:54:57;;;;;;;0.00;0.00;;;;;;;13.12;78.17;100992.34;6120179;23;20013;-78
2023/05/12 06:57:22;;;;;;;0.00;0.00;;;;;;;13.16;76.73;100993.44;6177641;23;20028;-78
2023/05/12 06:59:48;;;;;;;0.00;0.00;;;;;;;13.25;76.88;101002.81;6144966;23;20344;-77
2023/05/12 07:02:13;;;;;;;0.00;0.00;;;;;;;13.26;76.85;101010.78;6176677;23;20081;-76
2023/05/12 07:04:39;;;;;;;0.00;0.00;;;;;;;13.37;77.03;101011.66;6169106;23;20367;-76
2023/05/12 07:07:05;;;;;;;0.00;0.00;;;;;;;13.46;76.18;101013.88;6172855;23;20011;-77
2023/05/12 07:09:30;;;;;;;0.00;0.00;;;;;;;13.36;76.09;101021.00;6174301;23;20062;-77
2023/05/12 07:11:55;;;;;;;0.00;0.00;;;;;;;13.24;76.66;101028.63;6170298;22;20396;-77
2023/05/12 07:14:21;;;;;;;0.00;0.00;;;;;;;13.16;76.44;101026.41;6173870;23;20009;-77
2023/05/12 07:16:46;;;;;;;0.00;0.00;;;;;;;13.18;76.24;101024.19;6174379;23;19997;-80
2023/05/12 07:19:12;;;;;;;0.00;0.00;;;;;;;13.23;76.47;101021.50;6144448;23;20009;-77
2023/05/12 07:21:37;;;;;;;0.00;0.00;;;;;;;13.16;76.21;101021.72;6150272;23;20013;-78
2023/05/12 07:24:05;;;;;;;0.00;0.00;;;;;;;13.18;76.35;101024.19;6168726;23;20017;-77
2023/05/12 07:26:30;;;;;;;0.00;0.00;;;;;;;13.21;76.23;101029.97;6174330;23;20005;-77
2023/05/12 07:28:59;;;;;;;0.00;0.00;;;;;;;13.37;76.05;101030.88;6167948;22;19997;-75
2023/05/12 07:31:30;;;;;;;0.00;0.00;;;;;;;13.55;75.45;101015.00;6141912;22;20079;-76
2023/05/12 07:33:58;;;;;;;0.00;0.00;;;;;;;13.81;73.86;101009.53;6170868;23;20001;-77
2023/05/12 07:36:29;;;;;;;0.00;0.00;;;;;;;14.19;73.23;101023.84;6172454;23;20357;-78
2023/05/12 07:39:03;;;;;;;0.00;0.00;;;;;;;14.43;72.72;101044.19;6172473;23;20020;-78
2023/05/12 07:41:28;;;;;;;0.00;0.00;;;;;;;14.45;71.66;101030.97;6166757;22;20029;-77
2023/05/12 07:44:01;;;;;;;0.00;0.00;;;;;;;14.45;71.53;101011.72;6174236;23;20032;-76
2023/05/12 07:46:51;;;;;;;0.00;0.00;;;;;;;14.62;71.17;101010.63;6170731;23;20076;-78
2023/05/12 07:49:22;;;;;;;0.00;0.00;;;;;;;15.11;70.25;101020.94;6171872;23;20005;-77
2023/05/12 07:51:47;;;;;;;0.00;0.00;;;;;;;15.51;69.69;101032.84;6150576;23;20076;-74
2023/05/12 07:58:28;;;;;;;;;;;;;;;;;;;;;
2023/05/12 08:01:04;;;;;;;;;;;;;;;;;;;;;
2023/05/12 08:03:33;;;;;;;0.00;0.00;;;;;;;16.62;63.76;101029.78;6170828;23;20084;-78
2023/05/12 08:05:59;;;;;;;0.00;0.00;;;;;;;16.63;63.93;101048.00;6173028;23;20104;-78
2023/05/12 08:08:27;;;;;;;0.00;0.00;;;;;;;16.60;63.59;101046.63;6146923;23;20028;-79
2023/05/12 08:10:59;;;;;;;0.00;0.00;;;;;;;16.34;62.79;101038.63;6174817;23;20016;-79
2023/05/12 08:13:25;;;;;;;0.00;0.00;;;;;;;15.94;64.25;101046.09;6171163;23;20302;-78
2023/05/12 08:15:51;;;;;;;0.00;0.00;;;;;;;15.81;64.43;101038.47;6174281;23;20024;-79
2023/05/12 08:18:16;;;;;;;0.00;0.00;;;;;;;15.99;64.75;101034.19;6149381;22;20407;-81
2023/05/12 08:20:42;;;;;;;0.00;0.00;;;;;;;16.20;65.15;101038.44;6193918;23;20034;-79
2023/05/12 08:23:15;;;;;;;0.00;0.00;;;;;;;16.36;64.05;101033.63;6175455;23;19998;-78
2023/05/12 08:25:43;;;;;;;0.00;0.00;;;;;;;16.78;63.50;101039.56;6146850;23;20001;-76
2023/05/12 08:28:16;;;;;;;0.00;0.00;;;;;;;17.32;61.58;101025.66;6173659;23;20056;-77
2023/05/12 08:30:41;;;;;;;0.00;0.00;;;;;;;17.59;60.04;101047.97;6169044;22;20020;-78
2023/05/12 08:33:14;;;;;;;0.00;0.00;;;;;;;17.79;58.44;101043.25;6147712;23;20438;-77
2023/05/12 08:35:40;;;;;;;0.00;0.00;;;;;;;17.96;58.55;101035.28;6168279;22;20028;-77
2023/05/12 08:39:29;;;;;;;;;;;;;;;;;;;;;
2023/05/12 08:45:40;;;;;;;0.00;0.00;;;;;;;18.43;56.47;101042.81;6174602;23;20009;-77
2023/05/12 08:48:12;;;;;;;;;;;;;;;18.82;56.42;101056.22;6170705;23;19997;-78
2023/05/12 08:50:40;;;;;;;0.00;0.00;;;;;;;19.00;55.22;101040.63;6173738;23;19904;-78
2023/05/12 08:53:09;;;;;;;0.00;0.00;;;;;;;19.28;54.40;101046.16;6169055;23;20011;-76
2023/05/12 08:55:47;;;;;;;0.00;0.00;;;;;;;19.25;54.12;101046.78;6173622;23;20599;-76
2023/05/12 08:58:14;;;;;;;0.00;0.00;;;;;;;19.04;54.55;101040.03;6168817;23;20027;-78
2023/05/12 09:00:49;;;;;;;0.00;0.00;;;;;;;19.15;54.22;101042.28;6174743;22;20088;-77
2023/05/12 09:03:29;;;;;;;;;;;;;;;;;;;;;
2023/05/12 09:06:05;;;;;;;0.00;0.00;;;;;;;19.12;53.06;101042.09;6175268;23;20083;-78
2023/05/12 09:08:38;;;;;;;0.00;0.00;;;;;;;18.84;53.16;101042.06;6146940;22;20043;-77
2023/05/12 09:11:12;;;;;;;0.00;0.00;;;;;;;19.42;53.41;101042.53;6169741;22;20112;-78
2023/05/12 09:13:48;;;;;;;0.00;0.00;;;;;;;20.59;52.07;101049.19;6172419;23;19997;-77
2023/05/12 09:16:22;;;;;;;0.00;0.00;;;;;;;21.36;50.86;101054.56;6169480;22;20013;-76
2023/05/12 09:18:52;;;;;;;;;;;;;;;22.02;48.88;101074.00;6149044;22;20033;-77
2023/05/12 09:21:18;;;;;;;0.00;0.00;;;;;;;22.03;48.09;101066.44;6173529;23;20432;-76
2023/05/12 09:24:04;;;;;;;0.00;0.00;;;;;;;22.07;47.61;101079.38;6143822;23;20483;-76
2023/05/12 09:26:45;;;;;;;0.00;0.00;;;;;;;22.17;46.44;101057.94;6149470;22;20009;-77
2023/05/12 09:29:15;;;;;;;0.00;0.00;;;;;;;22.37;46.24;101082.34;6171040;23;20012;-78
2023/05/12 09:31:53;;;;;;;0.00;0.00;;;;;;;21.52;46.56;101057.75;6196287;23;20435;-78
2023/05/12 09:34:29;;;;;;;0.00;0.00;;;;;;;21.64;46.58;101082.97;6170483;23;20009;-77
2023/05/12 09:37:00;;;;;;;0.00;0.00;;;;;;;22.39;45.07;101074.47;6173101;23;20384;-78
2023/05/12 09:39:28;;;;;;;0.00;0.00;;;;;;;24.05;41.28;101058.88;6168239;22;20061;-77
2023/05/12 09:41:54;;;;;;;0.00;0.00;;;;;;;25.34;38.26;101081.28;6173422;22;20017;-77
2023/05/12 09:44:23;;;;;;;0.00;0.00;;;;;;;25.70;36.09;101065.56;6169072;23;20416;-76
2023/05/12 09:46:51;;;;;;;0.00;0.00;;;;;;;27.44;35.21;101085.91;6173780;22;19997;-77
2023/05/12 09:49:24;;;;;;;0.00;0.00;;;;;;;29.17;31.60;101075.22;6171560;22;20000;-76
2023/05/12 09:51:55;;;;;;;0.00;0.00;;;;;;;30.71;29.36;101076.44;6174084;23;20008;-75
2023/05/12 09:54:30;;;;;;;0.00;0.00;;;;;;;32.01;27.23;101077.34;6171565;22;20012;-74
2023/05/12 09:57:01;;;;;;;0.00;0.00;;;;;;;32.71;26.55;101079.97;6174534;23;20001;-76
2023/05/12 09:59:31;;;;;;;0.00;0.00;;;;;;;33.14;25.34;101077.13;6171853;22;20422;-75
2023/05/12 10:02:06;;;;;;;0.00;0.00;;;;;;;34.56;24.80;101090.41;6173225;23;20422;-76
2023/05/12 10:04:42;;;;;;;0.00;0.00;;;;;;;36.76;22.56;101088.00;6168280;22;20087;-77
2023/05/12 10:07:10;;;;;;;0.00;0.00;;;;;;;38.03;20.37;101090.16;6171939;22;20100;-77
2023/05/12 10:09:40;;;;;;;0.00;0.00;;;;;;;38.70;19.81;101071.91;6174769;23;20102;-75
2023/05/12 10:12:07;;;;;;;0.00;0.00;;;;;;;39.42;19.15;101081.47;6167359;22;20009;-75
2023/05/12 10:14:48;;;;;;;0.00;0.00;;;;;;;40.19;17.91;101068.66;6175857;22;20047;-76
2023/05/12 10:17:14;;;;;;;0.00;0.00;;;;;;;38.55;18.43;101070.63;6169301;22;20778;-76
2023/05/12 10:19:41;;;;;;;0.00;0.00;;;;;;;36.95;20.43;101075.09;6197156;23;20020;-77
2023/05/12 10:22:09;;;;;;;0.00;0.00;;;;;;;34.60;21.61;101082.69;6169886;23;20063;-75
2023/05/12 10:24:44;;;;;;;0.00;0.00;;;;;;;32.91;23.59;101054.88;6173492;23;20557;-77
2023/05/12 10:27:12;;;;;;;0.00;0.00;;;;;;;32.57;24.16;101055.25;6167925;22;20078;-75
2023/05/12 10:29:38;;;;;;;0.00;0.00;;;;;;;34.07;23.70;101063.94;6172588;22;20012;-78
2023/05/12 10:32:06;;;;;;;0.00;0.00;;;;;;;33.97;23.21;101076.16;6148139;23;20033;-75
2023/05/12 10:34:36;;;;;;;0.00;0.00;;;;;;;33.24;23.08;101078.38;6171336;23;20013;-75
2023/05/12 10:37:09;;;;;;;0.00;0.00;;;;;;;32.25;23.87;101067.31;6166322;22;20005;-77
2023/05/12 10:39:37;;;;;;;0.00;0.00;;;;;;;31.53;25.19;101074.63;6176492;23;20308;-76
2023/05/12 10:42:08;;;;;;;0.00;0.00;;;;;;;31.02;25.40;101077.13;6167227;22;20380;-76
2023/05/12 10:44:51;;;;;;;0.00;0.00;;;;;;;29.01;27.59;101053.66;6171807;23;19997;-77
2023/05/12 10:47:16;;;;;;;0.00;0.00;;;;;;;27.58;29.64;101041.28;6166782;23;20005;-76
2023/05/12 10:49:42;;;;;;;0.00;0.00;;;;;;;26.95;30.35;101065.44;6122426;23;20024;-78
2023/05/12 10:52:12;;;;;;;0.00;0.00;;;;;;;26.54;31.13;101053.56;6168673;23;20690;-80
2023/05/12 10:54:43;;;;;;;0.00;0.00;;;;;;;25.94;32.31;101045.88;6174178;23;20101;-76
2023/05/12 10:57:19;;;;;;;0.00;0.00;;;;;;;26.86;32.24;101050.81;6168541;23;20013;-77
2023/05/12 11:00:05;;;;;;;0.00;0.00;;;;;;;28.06;29.92;101043.09;6169796;23;20015;-77
2023/05/12 11:02:31;;;;;;;0.00;0.00;;;;;;;29.71;28.88;101056.31;6169543;23;20343;-77
2023/05/12 11:05:09;;;;;;;0.00;0.00;;;;;;;31.28;26.92;101055.53;6170855;22;20636;-77
2023/05/12 11:07:35;;;;;;;0.00;0.00;;;;;;;29.30;27.66;101040.06;6170784;22;20084;-77
2023/05/12 11:10:10;;;;;;;0.00;0.00;;;;;;;27.37;30.13;101074.50;6173088;23;20005;-76
2023/05/12 11:12:36;;;;;;;0.00;0.00;;;;;;;25.51;33.17;101044.63;6169074;22;20309;-78
2023/05/12 11:15:05;;;;;;;0.00;0.00;;;;;;;24.72;34.11;101042.06;6149053;23;20009;-75
2023/05/12 11:17:30;;;;;;;0.00;0.00;;;;;;;24.53;34.58;101032.22;6143411;23;20028;-77
2023/05/12 11:19:59;;;;;;;0.00;0.00;;;;;;;26.43;34.80;101055.25;6173677;23;20408;-76
2023/05/12 11:22:25;;;;;;;0.00;0.00;;;;;;;30.08;29.02;101039.50;6142226;22;20015;-77
2023/05/12 11:24:57;;;;;;;0.00;0.00;;;;;;;33.80;23.76;101033.25;6123740;23;20028;-75
2023/05/12 11:27:29;;;;;;;0.00;0.00;;;;;;;37.28;20.73;101038.28;6169687;23;20001;-78
2023/05/12 11:30:03;;;;;;;0.00;0.00;;;;;;;40.50;17.89;101033.72;6151091;23;20370;-77
2023/05/12 11:32:31;;;;;;;0.00;0.00;;;;;;;41.91;15.08;101049.59;6168312;23;20012;-78
2023/05/12 11:35:18;;;;;;;0.00;0.00;;;;;;;42.10;15.59;101057.06;6170805;23;20007;-78
2023/05/12 11:37:51;;;;;;;0.00;0.00;;;;;;;40.50;15.84;101071.78;6171815;22;20017;-78
2023/05/12 11:40:21;;;;;;;0.00;0.00;;;;;;;36.37;19.22;101065.84;6173489;22;20032;-79
2023/05/12 11:42:51;;;;;;;0.00;0.00;;;;;;;33.53;22.29;101053.59;6169416;22;20056;-76
2023/05/12 11:45:27;;;;;;;0.00;0.00;;;;;;;33.04;22.98;101055.28;6173712;22;20351;-78
2023/05/12 11:48:05;;;;;;;0.00;0.00;;;;;;;32.77;23.12;101046.38;6168385;22;20110;-78